Avila Beach, CA

7:41 AM PDT on October 24, 2014 (GMT -0700)
Squire Canyon | Change Station
CLOSE
Current Station
Personal Weather Station
Location: San Luis Obispo, CA
Elevation: 181 ft
Nearby Weather Stations

Elev 181 ft 35.20 °N, 120.68 °W | Updated 1 minute ago

Overcast
Overcast
52.7 °F
Feels Like 52.7 °F
N
0.0
Wind Variable Wind from SSE
Gusts 0.0 mph

Today
High -- | Low -- °F
--% Chance of Precip.
Yesterday
High -- | Low -- °F
Precip. -- in
7:16 AM 6:16 PM
New Moon, 1% visible
Pressure 29.99 in
Visibility 0.2 miles
Clouds
Dew Point 52 °F
Humidity 97%
Rainfall 0.00 in
Snow Depth Not available.
UV Not available.
Pollen 4.10 out of 12
Air Quality Not available.
Flu Activity Sporadic
METAR KSBP 241356Z 00000KT 1/4SM FG VV002 11/11 A2999 RMK AO2 SLP154 T01060106

More Conditions Fewer Conditions

Pressure 29.99 in
Visibility 0.2 miles
Clouds
Dew Point 52 °F
Humidity 97%
Rainfall 0.00 in
Snow Depth Not available.
UV Not available.
Pollen 4.10 out of 12
Air Quality Not available.
Flu Activity Sporadic
METAR KSBP 241356Z 00000KT 1/4SM FG VV002 11/11 A2999 RMK AO2 SLP154 T01060106

More Conditions Fewer Conditions

Nowcast | as of 5:47 am PDT on October 24, 2014

Patchy dense fog...with visibilities of one quarter mile or less...will continue along the central coast through about 800 am PDT. The dense fog will impact the morning commute along coastal roadways including the 1 and 101. If dense fog is encountered...slow down...use low beam headlights and keep plenty of distance between vehicles.

×

10-Day Weather Forecast

Almanac

Astronomy

Oct. 24, 2014 Rise Set
Actual Time 7:16 AM PDT 6:16 PM PDT
Civil Twilight 6:51 AM PDT 6:42 PM PDT
Nautical Twilight 6:21 AM PDT 7:12 PM PDT
Astronomical Twilight 5:51 AM PDT 7:41 PM PDT
Moon 7:59 AM PDT 7:02 PM PDT
Length of Visible Light 11h 51m
Length of Day
10h 59m
Tomorrow will be 2m 2s shorter.
New Moon, 1% of the Moon is Illuminated
Today
New Moon
Oct 30
First Quarter
Nov 6
Full
Nov 14
Last Quarter
Nov 22
New

Today's Extremes

State Highs State Lows

Community

WunderPhotos

Upload Photos

1,764,581 photos uploaded!

WunderBlogs® & News

Nearby

Snow Depth

Station Depth Elevation
Virginia Lakes Ridge 0 in 9200 ft
Leavitt Lake 1 in 9400 ft
Sonora Pass 0 in 8800 ft
Leavitt Meadows 1 in 7200 ft
Summit Meadow 1 in 9122 ft

Earthquake Activity

City Distance Mag. Time & Date
Solvang, California 61 miles 2.6 5:35 PM PDT
2014-10-22
Kettleman City, California 69 miles 2.5 9:08 AM PDT
2014-10-22
Minimum magnitude displayed is 2.5.

Coastal Water Temperatures

Place Temperature
No Stations Reporting

Nearby Weather Stations